Time;durP1;ratioP1;P1;durP2;ratioP2;P2;SDS_P1;SDS_P2;PMS_P1;PMS_P2;Temp;Humidity;BMP_temperature;BMP_pressure;BME280_temperature;BME280_humidity;BME280_pressure;Samples;Min_cycle;Max_cycle;Signal;HPM_P1;HPM_P2
2023/09/28 00:01:16;;;;;;;0.25;0.22;;;19.00;99.90;;;;;;5018172;28;20133;-64
2023/09/28 00:03:42;;;;;;;0.00;0.00;;;19.00;99.90;;;;;;5023127;28;20500;-64
2023/09/28 00:06:08;;;;;;;0.20;0.20;;;19.00;99.90;;;;;;5023400;28;20041;-64
2023/09/28 00:08:34;;;;;;;0.22;0.22;;;19.00;99.90;;;;;;5018859;28;20049;-64
2023/09/28 00:11:00;;;;;;;3.03;0.38;;;19.00;99.90;;;;;;5028946;28;20072;-64
2023/09/28 00:13:25;;;;;;;2.92;0.98;;;19.00;99.90;;;;;;5032255;28;20404;-64
2023/09/28 00:15:51;;;;;;;0.90;0.80;;;18.90;99.90;;;;;;5027760;28;20080;-64
2023/09/28 00:18:17;;;;;;;12.18;0.57;;;18.90;99.90;;;;;;5023475;28;20104;-64
2023/09/28 00:20:43;;;;;;;1.35;1.08;;;18.90;99.90;;;;;;5030353;28;20634;-64
2023/09/28 00:23:09;;;;;;;0.28;0.22;;;18.90;99.90;;;;;;5018838;28;20081;-64
2023/09/28 00:25:34;;;;;;;0.85;0.85;;;19.00;99.90;;;;;;5029088;28;20084;-64
2023/09/28 00:28:00;;;;;;;0.60;0.60;;;18.90;99.90;;;;;;5018030;28;20415;-64
2023/09/28 00:30:26;;;;;;;0.95;0.77;;;18.90;99.90;;;;;;5029817;28;20037;-64
2023/09/28 00:32:54;;;;;;;0.10;0.10;;;18.80;99.90;;;;;;5031447;28;20595;-64
2023/09/28 00:35:20;;;;;;;0.10;0.10;;;18.90;99.90;;;;;;5023842;28;20133;-64
2023/09/28 00:37:47;;;;;;;0.40;0.40;;;18.80;99.90;;;;;;5017493;28;20034;-64
2023/09/28 00:40:31;;;;;;;0.20;0.20;;;18.80;99.90;;;;;;5031114;28;20053;-64
2023/09/28 00:42:58;;;;;;;0.43;0.43;;;18.70;99.90;;;;;;5021805;28;20116;-64
2023/09/28 00:45:25;;;;;;;0.20;0.20;;;18.80;99.90;;;;;;5017659;28;20045;-64
2023/09/28 00:47:56;;;;;;;0.63;0.63;;;18.70;99.90;;;;;;5028859;28;20046;-64
2023/09/28 00:50:22;;;;;;;1.02;0.55;;;18.70;99.90;;;;;;5021971;28;20049;-64
2023/09/28 00:53:03;;;;;;;0.47;0.47;;;18.70;99.90;;;;;;5029314;28;20064;-64
2023/09/28 00:55:30;;;;;;;0.43;0.43;;;18.70;99.90;;;;;;5031125;28;20149;-64
2023/09/28 00:58:08;;;;;;;0.47;0.47;;;18.60;99.90;;;;;;5027359;28;20045;-64
2023/09/28 01:00:34;;;;;;;4.32;0.60;;;18.60;99.90;;;;;;5023875;28;20140;-64
2023/09/28 01:03:02;;;;;;;0.28;0.28;;;18.60;99.90;;;;;;5018089;28;20489;-64
2023/09/28 01:05:33;;;;;;;0.17;0.17;;;18.60;99.90;;;;;;5031695;28;20041;-64
2023/09/28 01:08:06;;;;;;;13.38;1.23;;;18.50;99.90;;;;;;5021843;28;20041;-64
2023/09/28 01:10:35;;;;;;;0.10;0.10;;;18.50;99.90;;;;;;5018188;28;20037;-64
2023/09/28 01:13:06;;;;;;;0.05;0.05;;;18.40;99.90;;;;;;5031954;28;20442;-64
2023/09/28 01:15:33;;;;;;;0.13;0.13;;;18.30;99.90;;;;;;5020498;28;20029;-64
2023/09/28 01:17:58;;;;;;;0.82;0.82;;;18.30;99.90;;;;;;5017322;28;20053;-64
2023/09/28 01:20:34;;;;;;;0.75;0.75;;;18.30;99.90;;;;;;5030170;28;20041;-64
2023/09/28 01:23:00;;;;;;;0.32;0.32;;;18.40;99.90;;;;;;5024946;28;20053;-64
2023/09/28 01:25:26;;;;;;;1.95;0.52;;;18.30;99.90;;;;;;5025385;28;20124;-64
2023/09/28 01:27:52;;;;;;;0.75;0.35;;;18.30;99.90;;;;;;5021279;28;20046;-64
2023/09/28 01:30:18;;;;;;;1.65;0.63;;;18.40;99.90;;;;;;5027733;28;20041;-64
2023/09/28 01:32:44;;;;;;;0.10;0.10;;;18.30;99.90;;;;;;5022189;28;20171;-64
2023/09/28 01:35:11;;;;;;;1.00;0.95;;;18.30;99.90;;;;;;5021935;28;20050;-64
2023/09/28 01:38:01;;;;;;;0.65;0.10;;;18.30;99.90;;;;;;5027268;28;20041;-64
2023/09/28 01:40:26;;;;;;;0.30;0.20;;;18.30;99.90;;;;;;5035424;28;20048;-64
2023/09/28 01:42:53;;;;;;;0.20;0.13;;;18.30;99.90;;;;;;5030277;28;20033;-64
2023/09/28 01:45:18;;;;;;;0.43;0.43;;;18.30;99.90;;;;;;5022748;28;20037;-64
2023/09/28 01:47:44;;;;;;;0.10;0.10;;;18.30;99.90;;;;;;5035401;28;20108;-64
2023/09/28 01:50:10;;;;;;;0.43;0.43;;;18.30;99.90;;;;;;5028636;28;20389;-64
2023/09/28 01:52:36;;;;;;;0.10;0.10;;;18.20;99.90;;;;;;5029930;28;20041;-64
2023/09/28 01:55:02;;;;;;;0.40;0.40;;;18.20;99.90;;;;;;5021653;28;20124;-65
2023/09/28 01:57:27;;;;;;;0.10;0.10;;;18.30;99.90;;;;;;5031070;28;20485;-64
2023/09/28 01:59:53;;;;;;;0.08;0.08;;;18.20;99.90;;;;;;5034759;28;20041;-64
2023/09/28 02:02:21;;;;;;;0.05;0.05;;;18.30;99.90;;;;;;5035195;28;20069;-64
2023/09/28 02:04:47;;;;;;;0.10;0.10;;;18.20;99.90;;;;;;5022279;28;20428;-64
2023/09/28 02:07:13;;;;;;;0.13;0.13;;;18.20;99.90;;;;;;5033944;28;20099;-64
2023/09/28 02:09:39;;;;;;;0.35;0.35;;;18.20;99.90;;;;;;5025383;28;20073;-64
2023/09/28 02:12:06;;;;;;;0.00;0.00;;;18.10;99.90;;;;;;5031808;28;20129;-64
2023/09/28 02:14:32;;;;;;;0.40;0.40;;;18.10;99.90;;;;;;5031751;28;20037;-64
2023/09/28 02:16:58;;;;;;;0.20;0.20;;;18.10;99.90;;;;;;5027343;28;20511;-64
2023/09/28 02:19:24;;;;;;;0.10;0.10;;;18.00;99.90;;;;;;5024996;28;20037;-64
2023/09/28 02:21:51;;;;;;;0.20;0.20;;;18.00;99.90;;;;;;5028908;28;20076;-64
2023/09/28 02:24:17;;;;;;;0.20;0.20;;;18.00;99.90;;;;;;5034588;28;20087;-64
2023/09/28 02:26:44;;;;;;;0.10;0.10;;;18.00;99.90;;;;;;5033748;28;20037;-64
2023/09/28 02:29:10;;;;;;;0.00;0.00;;;18.00;99.90;;;;;;5030396;28;20054;-64
2023/09/28 02:31:40;;;;;;;0.20;0.20;;;18.10;99.90;;;;;;5033555;28;20049;-64
2023/09/28 02:34:07;;;;;;;0.47;0.47;;;18.00;99.90;;;;;;5034938;28;20041;-64
2023/09/28 02:36:33;;;;;;;1.20;0.52;;;18.00;99.90;;;;;;5029810;28;20049;-64
2023/09/28 02:38:58;;;;;;;1.20;0.47;;;18.00;99.90;;;;;;5024043;28;20037;-64
2023/09/28 02:41:24;;;;;;;0.10;0.10;;;18.00;99.90;;;;;;5034373;28;20465;-64
2023/09/28 02:43:50;;;;;;;0.00;0.00;;;18.10;99.90;;;;;;5032825;28;20049;-64
2023/09/28 02:46:15;;;;;;;0.28;0.25;;;18.10;99.90;;;;;;5023244;28;20073;-64
2023/09/28 02:48:41;;;;;;;0.08;0.08;;;18.10;99.90;;;;;;5030694;28;20034;-64
2023/09/28 02:51:10;;;;;;;1.27;0.40;;;18.10;99.90;;;;;;5029180;28;20042;-64
2023/09/28 02:53:36;;;;;;;0.17;0.17;;;18.10;99.90;;;;;;5013908;28;20046;-64
2023/09/28 02:56:03;;;;;;;0.47;0.47;;;18.10;99.90;;;;;;5029511;28;20045;-64
2023/09/28 02:58:29;;;;;;;0.00;0.00;;;18.10;99.90;;;;;;5024127;28;20053;-64
2023/09/28 03:00:56;;;;;;;0.38;0.15;;;18.10;99.90;;;;;;5021052;28;20056;-64
2023/09/28 03:03:23;;;;;;;0.25;0.25;;;18.10;99.90;;;;;;5034116;28;20542;-64
2023/09/28 03:05:52;;;;;;;0.00;0.00;;;18.10;99.90;;;;;;5034015;28;20077;-64
2023/09/28 03:08:17;;;;;;;0.20;0.20;;;18.10;99.90;;;;;;5023187;28;20095;-64
2023/09/28 03:10:44;;;;;;;0.35;0.35;;;18.10;99.90;;;;;;5022168;28;20037;-64
2023/09/28 03:13:11;;;;;;;0.20;0.20;;;18.10;99.90;;;;;;5026225;28;20133;-64
2023/09/28 03:15:40;;;;;;;0.08;0.08;;;18.10;99.90;;;;;;5028207;28;20084;-64
2023/09/28 03:18:06;;;;;;;0.30;0.30;;;18.10;99.90;;;;;;5031437;28;20051;-64
2023/09/28 03:20:32;;;;;;;0.00;0.00;;;18.00;99.90;;;;;;5020253;28;20393;-64
2023/09/28 03:22:57;;;;;;;0.00;0.00;;;18.10;99.90;;;;;;5027885;28;20124;-64
2023/09/28 03:25:23;;;;;;;0.10;0.10;;;18.00;99.90;;;;;;5031870;28;20037;-64
2023/09/28 03:27:51;;;;;;;0.82;0.60;;;18.00;99.90;;;;;;5016924;28;20044;-64
2023/09/28 03:30:18;;;;;;;0.17;0.17;;;18.00;99.90;;;;;;5028268;28;20073;-64
2023/09/28 03:32:47;;;;;;;0.10;0.10;;;17.90;99.90;;;;;;5014723;28;20952;-64
2023/09/28 03:35:13;;;;;;;0.73;0.47;;;17.90;99.90;;;;;;5028148;28;20045;-64
2023/09/28 03:37:40;;;;;;;0.20;0.20;;;17.90;99.90;;;;;;5031760;28;20081;-64
2023/09/28 03:40:10;;;;;;;0.47;0.47;;;17.90;99.90;;;;;;5031656;28;20091;-64
2023/09/28 03:42:37;;;;;;;2.20;0.50;;;17.90;99.90;;;;;;5019516;28;20100;-64
2023/09/28 03:45:04;;;;;;;2.63;0.60;;;17.90;99.90;;;;;;5025746;28;20050;-64
2023/09/28 03:47:31;;;;;;;0.30;0.30;;;17.90;99.90;;;;;;5027445;28;20069;-64
2023/09/28 03:49:57;;;;;;;0.80;0.75;;;17.90;99.90;;;;;;5032113;28;20057;-64
2023/09/28 03:52:23;;;;;;;3.25;1.08;;;17.80;99.90;;;;;;5033132;28;20068;-64
2023/09/28 03:54:49;;;;;;;0.10;0.10;;;17.80;99.90;;;;;;5026193;28;20041;-64
2023/09/28 03:57:14;;;;;;;0.10;0.10;;;17.80;99.90;;;;;;5020715;28;20060;-64
2023/09/28 03:59:40;;;;;;;0.00;0.00;;;17.80;99.90;;;;;;5030918;28;20056;-64
2023/09/28 04:02:06;;;;;;;0.30;0.30;;;17.80;99.90;;;;;;5029711;28;20049;-64
2023/09/28 04:04:32;;;;;;;0.20;0.20;;;17.70;99.90;;;;;;5032240;28;20176;-64
2023/09/28 04:06:57;;;;;;;0.30;0.30;;;17.70;99.90;;;;;;5032409;28;20120;-64
2023/09/28 04:09:23;;;;;;;0.30;0.30;;;17.60;99.90;;;;;;5022609;28;20387;-64
2023/09/28 04:11:49;;;;;;;0.20;0.20;;;17.60;99.90;;;;;;5030867;28;20042;-64
2023/09/28 04:14:15;;;;;;;0.10;0.10;;;17.60;99.90;;;;;;5032696;28;20041;-64
2023/09/28 04:16:41;;;;;;;0.77;0.45;;;17.60;99.90;;;;;;5021621;28;20125;-64
2023/09/28 04:19:07;;;;;;;0.30;0.30;;;17.60;99.90;;;;;;5022597;28;20497;-64
2023/09/28 04:21:33;;;;;;;0.10;0.10;;;17.50;99.90;;;;;;5032472;28;20037;-64
2023/09/28 04:23:59;;;;;;;0.20;0.17;;;17.60;99.90;;;;;;5032511;28;20469;-64
2023/09/28 04:26:25;;;;;;;3.25;0.55;;;17.60;99.90;;;;;;5021419;28;20129;-64
2023/09/28 04:28:52;;;;;;;0.00;0.00;;;17.50;99.90;;;;;;5024161;28;20136;-64
2023/09/28 04:31:18;;;;;;;0.00;0.00;;;17.60;99.90;;;;;;5031775;28;20033;-64
2023/09/28 04:33:44;;;;;;;0.50;0.50;;;17.50;99.90;;;;;;5024249;28;20049;-64
2023/09/28 04:36:10;;;;;;;0.50;0.50;;;17.50;99.90;;;;;;5026470;28;20107;-64
2023/09/28 04:38:36;;;;;;;0.08;0.08;;;17.50;99.90;;;;;;5029778;28;20095;-64
2023/09/28 04:41:02;;;;;;;1.27;1.17;;;17.40;99.90;;;;;;5032095;28;20045;-64
2023/09/28 04:43:28;;;;;;;0.00;0.00;;;17.40;99.90;;;;;;5030027;28;20056;-64
2023/09/28 04:45:54;;;;;;;1.83;0.75;;;17.40;99.90;;;;;;5017785;28;20033;-64
2023/09/28 04:48:19;;;;;;;0.75;0.75;;;17.30;99.90;;;;;;5032080;28;20061;-64
2023/09/28 04:50:45;;;;;;;0.08;0.08;;;17.30;99.90;;;;;;5027447;28;20084;-64
2023/09/28 04:53:11;;;;;;;0.00;0.00;;;17.20;99.90;;;;;;5021566;28;20046;-64
2023/09/28 04:55:37;;;;;;;0.00;0.00;;;17.20;99.90;;;;;;5029820;28;20056;-64
2023/09/28 04:58:03;;;;;;;0.00;0.00;;;17.20;99.90;;;;;;5021489;28;20133;-64
2023/09/28 05:00:28;;;;;;;0.40;0.40;;;17.20;99.90;;;;;;5029804;28;20048;-64
2023/09/28 05:02:54;;;;;;;2.42;1.70;;;17.10;99.90;;;;;;5031855;28;20042;-64
2023/09/28 05:05:20;;;;;;;0.25;0.25;;;17.10;99.90;;;;;;5023174;28;20056;-64
2023/09/28 05:07:46;;;;;;;2.63;1.88;;;17.10;99.90;;;;;;5028937;28;20057;-64
2023/09/28 05:10:11;;;;;;;0.15;0.15;;;17.10;99.90;;;;;;5031628;28;20048;-64
2023/09/28 05:12:37;;;;;;;1.45;0.65;;;17.00;99.90;;;;;;5024097;28;20038;-64
2023/09/28 05:15:04;;;;;;;0.10;0.10;;;17.00;99.90;;;;;;5023351;28;20045;-64
2023/09/28 05:17:29;;;;;;;0.08;0.08;;;16.90;99.90;;;;;;5025733;28;20042;-64
2023/09/28 05:19:55;;;;;;;0.38;0.38;;;16.90;99.90;;;;;;5030198;28;20575;-64
2023/09/28 05:22:20;;;;;;;0.30;0.30;;;16.80;99.90;;;;;;5030700;28;20052;-64
2023/09/28 05:24:46;;;;;;;0.52;0.52;;;16.80;99.90;;;;;;5028122;28;20525;-64
2023/09/28 05:27:12;;;;;;;0.00;0.00;;;16.80;99.90;;;;;;5023498;28;20052;-64
2023/09/28 05:29:37;;;;;;;0.00;0.00;;;16.80;99.90;;;;;;5027815;28;20136;-64
2023/09/28 05:32:05;;;;;;;0.00;0.00;;;16.80;99.90;;;;;;5028871;28;20077;-64
2023/09/28 05:34:31;;;;;;;4.15;2.13;;;16.80;99.90;;;;;;5027407;28;20042;-64
2023/09/28 05:36:56;;;;;;;0.05;0.05;;;16.90;99.90;;;;;;5027006;28;20029;-64
2023/09/28 05:39:22;;;;;;;0.20;0.20;;;16.90;99.90;;;;;;5028903;28;20033;-64
2023/09/28 05:41:47;;;;;;;0.88;0.65;;;16.90;99.90;;;;;;5028182;28;20038;-64
2023/09/28 05:44:14;;;;;;;0.68;0.68;;;16.90;99.90;;;;;;5017110;28;20069;-64
2023/09/28 05:46:40;;;;;;;0.47;0.47;;;16.80;99.90;;;;;;5031375;28;20044;-64
2023/09/28 05:49:05;;;;;;;2.88;1.20;;;16.80;99.90;;;;;;5030340;28;20052;-64
2023/09/28 05:51:31;;;;;;;0.85;0.85;;;16.80;99.90;;;;;;5030236;28;20041;-64
2023/09/28 05:53:57;;;;;;;0.95;0.80;;;16.80;99.90;;;;;;5013866;28;20073;-64
2023/09/28 05:56:22;;;;;;;0.75;0.70;;;16.80;99.90;;;;;;5027027;28;20065;-64
2023/09/28 05:58:48;;;;;;;0.45;0.45;;;16.80;99.90;;;;;;5030874;28;20037;-64
2023/09/28 06:01:17;;;;;;;0.00;0.00;;;16.80;99.90;;;;;;5029085;28;20037;-64
2023/09/28 06:03:43;;;;;;;1.75;0.80;;;16.80;99.90;;;;;;5022085;28;20040;-64
2023/09/28 06:06:16;;;;;;;1.30;0.68;;;16.80;99.90;;;;;;5031185;28;20050;-64
2023/09/28 06:08:42;;;;;;;;;;;16.80;99.90;;;;;;5026356;28;20041;-64
2023/09/28 06:11:12;;;;;;;3.22;1.67;;;16.80;99.90;;;;;;5020140;28;20354;-64
2023/09/28 06:13:40;;;;;;;0.05;0.05;;;16.80;99.90;;;;;;5030951;28;20558;-64
2023/09/28 06:16:05;;;;;;;0.10;0.10;;;16.80;99.90;;;;;;5031362;28;20436;-64
2023/09/28 06:18:31;;;;;;;0.20;0.20;;;16.80;99.90;;;;;;5014867;28;20029;-64
2023/09/28 06:20:57;;;;;;;0.68;0.68;;;16.80;99.90;;;;;;5014538;28;20042;-64
2023/09/28 06:23:22;;;;;;;0.20;0.20;;;16.80;99.90;;;;;;5032577;28;20048;-64
2023/09/28 06:25:48;;;;;;;0.50;0.50;;;16.80;99.90;;;;;;5026882;28;20733;-64
2023/09/28 06:28:13;;;;;;;0.43;0.43;;;16.80;99.90;;;;;;5023184;28;20042;-64
2023/09/28 06:30:39;;;;;;;0.08;0.08;;;16.80;99.90;;;;;;5026439;28;20551;-64
2023/09/28 06:33:05;;;;;;;0.73;0.45;;;16.80;99.90;;;;;;5026063;28;20041;-64
2023/09/28 06:35:31;;;;;;;2.10;1.77;;;16.80;99.90;;;;;;5034269;28;20053;-64
2023/09/28 06:37:56;;;;;;;0.10;0.10;;;16.90;99.90;;;;;;5023366;28;20037;-64
2023/09/28 06:40:22;;;;;;;2.28;2.08;;;16.90;99.90;;;;;;5031836;28;20041;-64
2023/09/28 06:42:47;;;;;;;2.03;1.60;;;17.00;99.90;;;;;;5034279;28;20047;-64
2023/09/28 06:45:14;;;;;;;0.00;0.00;;;17.00;99.90;;;;;;5033096;28;20069;-64
2023/09/28 06:47:39;;;;;;;0.50;0.25;;;17.00;99.90;;;;;;5022873;28;20124;-64
2023/09/28 06:50:05;;;;;;;0.17;0.17;;;17.10;99.90;;;;;;5020184;28;20489;-64
2023/09/28 06:52:32;;;;;;;1.38;0.57;;;17.10;99.90;;;;;;5024121;28;20038;-64
2023/09/28 06:54:58;;;;;;;0.80;0.75;;;17.10;99.90;;;;;;5034218;28;20041;-64
2023/09/28 06:57:24;;;;;;;0.40;0.35;;;17.20;99.90;;;;;;5033981;28;20551;-64
2023/09/28 06:59:50;;;;;;;10.07;1.00;;;17.20;99.90;;;;;;5028403;28;20045;-64
2023/09/28 07:02:15;;;;;;;1.17;0.75;;;17.20;99.90;;;;;;5033948;28;20054;-64
2023/09/28 07:04:41;;;;;;;0.08;0.08;;;17.20;99.90;;;;;;5033024;28;20392;-64
2023/09/28 07:07:06;;;;;;;0.00;0.00;;;17.20;99.90;;;;;;5022200;28;20050;-64
2023/09/28 07:09:32;;;;;;;1.27;1.27;;;17.30;99.90;;;;;;5030358;28;20125;-64
2023/09/28 07:11:58;;;;;;;0.10;0.10;;;17.30;99.90;;;;;;5034287;28;20044;-64
2023/09/28 07:14:23;;;;;;;0.00;0.00;;;17.30;99.90;;;;;;5033158;28;20053;-64
2023/09/28 07:16:49;;;;;;;1.48;1.38;;;17.30;99.90;;;;;;5023984;28;20046;-64
2023/09/28 07:19:15;;;;;;;0.00;0.00;;;17.30;99.90;;;;;;5018766;28;20512;-64
2023/09/28 07:21:41;;;;;;;0.00;0.00;;;17.40;99.90;;;;;;5033065;28;20033;-64
2023/09/28 07:24:06;;;;;;;0.00;0.00;;;17.40;99.90;;;;;;5028894;28;20076;-64
2023/09/28 07:26:32;;;;;;;0.00;0.00;;;17.40;99.90;;;;;;5026916;28;20071;-64
2023/09/28 07:28:59;;;;;;;0.57;0.57;;;17.50;99.90;;;;;;5032739;28;20366;-64
2023/09/28 07:31:24;;;;;;;2.25;0.75;;;17.60;99.90;;;;;;5027313;28;20084;-64
2023/09/28 07:33:50;;;;;;;0.25;0.25;;;17.60;99.90;;;;;;5024297;28;20465;-64
2023/09/28 07:36:17;;;;;;;7.63;2.28;;;17.60;99.90;;;;;;5032267;28;20091;-64
2023/09/28 07:38:43;;;;;;;0.47;0.47;;;17.60;99.90;;;;;;5023060;28;20068;-64
2023/09/28 07:41:10;;;;;;;0.43;0.30;;;17.60;99.90;;;;;;5025915;28;20488;-64
2023/09/28 07:43:35;;;;;;;0.55;0.55;;;17.60;99.90;;;;;;5019553;28;20041;-64
2023/09/28 07:46:01;;;;;;;5.82;0.65;;;17.70;99.90;;;;;;5019997;28;20477;-64
2023/09/28 07:48:26;;;;;;;0.55;0.55;;;17.70;99.90;;;;;;5032390;28;20044;-64
2023/09/28 07:50:52;;;;;;;0.00;0.00;;;17.70;99.90;;;;;;5033175;28;20558;-64
2023/09/28 07:53:19;;;;;;;0.30;0.30;;;17.80;99.90;;;;;;5026791;28;20455;-64
2023/09/28 07:55:45;;;;;;;1.13;0.95;;;17.80;99.90;;;;;;5027500;28;20057;-64
2023/09/28 07:58:10;;;;;;;0.50;0.50;;;17.80;99.90;;;;;;5031713;28;20132;-64
2023/09/28 08:00:37;;;;;;;1.45;1.38;;;17.90;99.90;;;;;;5027344;28;20111;-64
2023/09/28 08:03:03;;;;;;;1.85;1.75;;;17.90;99.90;;;;;;5024039;28;20042;-64
2023/09/28 08:05:29;;;;;;;8.57;3.40;;;17.90;99.90;;;;;;5021766;28;20393;-64
2023/09/28 08:07:54;;;;;;;0.10;0.10;;;17.90;99.90;;;;;;5028043;28;20038;-64
2023/09/28 08:10:20;;;;;;;0.00;0.00;;;17.90;99.90;;;;;;5018410;28;20077;-64
2023/09/28 08:12:46;;;;;;;7.03;1.17;;;18.00;99.90;;;;;;5030148;28;20044;-64
2023/09/28 08:15:12;;;;;;;0.13;0.13;;;18.00;99.90;;;;;;5032379;28;20071;-64
2023/09/28 08:17:39;;;;;;;6.38;3.65;;;18.00;99.90;;;;;;5025069;28;20042;-64
2023/09/28 08:20:07;;;;;;;1.23;1.15;;;18.00;99.90;;;;;;5026748;28;20049;-63
2023/09/28 08:22:34;;;;;;;20.17;1.17;;;18.00;99.90;;;;;;5031054;28;20108;-64
2023/09/28 08:25:00;;;;;;;0.22;0.22;;;18.00;99.90;;;;;;5022532;28;20622;-64
2023/09/28 08:27:25;;;;;;;1.17;0.90;;;18.00;99.90;;;;;;5025395;28;20045;-64
2023/09/28 08:29:51;;;;;;;0.00;0.00;;;18.00;99.90;;;;;;5030906;28;20049;-64
2023/09/28 08:32:17;;;;;;;3.20;0.85;;;18.00;99.90;;;;;;5022905;28;20037;-64
2023/09/28 08:34:43;;;;;;;1.88;1.70;;;18.00;99.90;;;;;;5026679;28;20200;-64
2023/09/28 08:37:09;;;;;;;0.25;0.25;;;18.00;99.90;;;;;;5022408;28;20802;-64
2023/09/28 08:39:37;;;;;;;0.55;0.15;;;18.00;99.90;;;;;;5028089;28;20092;-64
2023/09/28 08:42:05;;;;;;;0.10;0.10;;;18.00;99.90;;;;;;5023319;28;20103;-64
2023/09/28 08:44:32;;;;;;;1.15;0.47;;;18.00;99.90;;;;;;5031399;28;20046;-64
2023/09/28 08:46:59;;;;;;;0.10;0.10;;;18.00;99.90;;;;;;5029705;28;20106;-64
2023/09/28 08:49:29;;;;;;;0.00;0.00;;;18.00;99.90;;;;;;5028010;28;20141;-64
2023/09/28 08:51:55;;;;;;;0.10;0.10;;;18.00;99.90;;;;;;5029817;28;20041;-64
2023/09/28 08:54:24;;;;;;;0.25;0.25;;;18.00;99.90;;;;;;5022425;28;20046;-64
2023/09/28 08:56:52;;;;;;;0.30;0.30;;;18.00;99.90;;;;;;5030210;28;20088;-64
2023/09/28 08:59:19;;;;;;;0.90;0.90;;;18.00;99.90;;;;;;5027459;28;20045;-64
2023/09/28 09:01:46;;;;;;;1.17;0.50;;;18.00;99.90;;;;;;5020344;28;20042;-64
2023/09/28 09:04:12;;;;;;;0.00;0.00;;;18.00;99.90;;;;;;5030861;28;20075;-64
2023/09/28 09:06:40;;;;;;;0.10;0.10;;;18.00;99.90;;;;;;5030829;28;20142;-64
2023/09/28 09:09:06;;;;;;;0.43;0.43;;;18.00;99.90;;;;;;5028741;28;20422;-64
2023/09/28 09:11:33;;;;;;;1.23;1.23;;;18.00;99.90;;;;;;5017612;28;20084;-64
2023/09/28 09:13:59;;;;;;;0.17;0.17;;;18.00;99.90;;;;;;5030437;28;20045;-64
2023/09/28 09:16:30;;;;;;;3.25;1.88;;;18.00;99.90;;;;;;5025048;28;20500;-64
2023/09/28 09:18:56;;;;;;;4.53;2.75;;;18.00;99.90;;;;;;5023907;28;20049;-63
2023/09/28 09:21:23;;;;;;;0.00;0.00;;;18.10;99.90;;;;;;5030855;28;20033;-64
2023/09/28 09:24:05;;;;;;;0.00;0.00;;;18.10;99.90;;;;;;5018595;28;20080;-64
2023/09/28 09:26:45;;;;;;;0.45;0.30;;;18.20;99.90;;;;;;5025667;28;20117;-64
2023/09/28 09:29:12;;;;;;;1.02;0.73;;;18.20;99.90;;;;;;5019662;28;20493;-64
2023/09/28 09:31:43;;;;;;;0.00;0.00;;;18.30;99.90;;;;;;5019052;28;20084;-64
2023/09/28 09:34:12;;;;;;;0.03;0.03;;;18.40;99.90;;;;;;5031042;28;20045;-64
2023/09/28 09:36:39;;;;;;;0.00;0.00;;;18.30;99.90;;;;;;5022605;28;20041;-64
2023/09/28 09:39:06;;;;;;;0.00;0.00;;;18.30;99.90;;;;;;5028639;28;20550;-64
2023/09/28 09:41:43;;;;;;;0.10;0.10;;;18.40;99.90;;;;;;5030967;28;20496;-64
2023/09/28 09:44:10;;;;;;;1.10;1.02;;;18.40;99.90;;;;;;5019842;28;20932;-64
2023/09/28 09:46:36;;;;;;;0.75;0.75;;;18.50;99.90;;;;;;5030348;28;20042;-64
2023/09/28 09:49:03;;;;;;;0.90;0.22;;;18.50;99.90;;;;;;5022156;28;20485;-64
2023/09/28 09:51:32;;;;;;;0.45;0.45;;;18.50;99.90;;;;;;5030043;28;20493;-64
2023/09/28 09:53:58;;;;;;;0.47;0.32;;;18.60;99.90;;;;;;5031620;28;20484;-64
2023/09/28 09:56:26;;;;;;;1.08;0.65;;;18.60;99.90;;;;;;5030531;28;20497;-64
2023/09/28 09:58:56;;;;;;;0.45;0.45;;;18.60;99.90;;;;;;5028723;28;20094;-64
2023/09/28 10:01:22;;;;;;;0.00;0.00;;;18.50;99.90;;;;;;5029396;28;20045;-64
2023/09/28 10:03:52;;;;;;;0.00;0.00;;;18.50;99.90;;;;;;5033216;28;20050;-63
2023/09/28 10:06:19;;;;;;;0.35;0.35;;;18.50;99.90;;;;;;5033259;28;20038;-64
2023/09/28 10:08:49;;;;;;;0.47;0.47;;;18.40;99.90;;;;;;5022658;28;20049;-64
2023/09/28 10:11:16;;;;;;;0.25;0.25;;;18.40;99.90;;;;;;5033919;28;20171;-64
2023/09/28 10:13:43;;;;;;;0.52;0.52;;;18.40;99.90;;;;;;5032775;28;20565;-64
2023/09/28 10:16:13;;;;;;;0.00;0.00;;;18.40;99.90;;;;;;5022029;28;20484;-64
2023/09/28 10:18:43;;;;;;;0.00;0.00;;;18.50;99.90;;;;;;5035232;28;20049;-64
2023/09/28 10:21:09;;;;;;;0.55;0.55;;;18.50;99.90;;;;;;5023538;28;20041;-63
2023/09/28 10:23:35;;;;;;;0.90;0.57;;;18.60;99.90;;;;;;5020745;28;20069;-64
2023/09/28 10:26:11;;;;;;;1.55;0.52;;;18.60;99.90;;;;;;5034370;28;20049;-64
2023/09/28 10:28:56;;;;;;;5.88;1.95;;;18.70;99.90;;;;;;5032871;28;20042;-64
2023/09/28 10:31:22;;;;;;;1.13;0.85;;;18.70;99.90;;;;;;5018887;28;20484;-64
2023/09/28 10:34:07;;;;;;;0.43;0.43;;;18.70;99.90;;;;;;5034584;28;20040;-64
2023/09/28 10:36:37;;;;;;;0.22;0.22;;;18.70;99.90;;;;;;5022963;28;20037;-64
2023/09/28 10:39:17;;;;;;;0.00;0.00;;;18.60;99.90;;;;;;5023542;28;20045;-64
2023/09/28 10:41:46;;;;;;;0.75;0.75;;;18.60;99.90;;;;;;5027932;28;20045;-63
2023/09/28 10:44:21;;;;;;;0.00;0.00;;;18.60;99.90;;;;;;5024003;28;20061;-64
2023/09/28 10:46:50;;;;;;;1.02;1.02;;;18.60;99.90;;;;;;5034079;28;20061;-64
2023/09/28 10:49:24;;;;;;;4.55;2.63;;;18.70;99.90;;;;;;5033663;28;20085;-64
2023/09/28 10:51:51;;;;;;;0.80;0.55;;;18.80;99.90;;;;;;5026058;28;20053;-64
2023/09/28 10:54:17;;;;;;;0.85;0.75;;;19.00;99.90;;;;;;5021525;28;20057;-64
2023/09/28 10:56:43;;;;;;;0.20;0.20;;;19.00;99.90;;;;;;5021760;28;20140;-64
2023/09/28 10:59:11;;;;;;;1.05;1.05;;;19.10;99.90;;;;;;5032605;28;20116;-64
2023/09/28 11:01:47;;;;;;;2.80;2.58;;;19.10;99.90;;;;;;5031268;28;20072;-64
2023/09/28 11:04:13;;;;;;;0.65;0.65;;;19.20;99.90;;;;;;5026063;28;20045;-64
2023/09/28 11:06:42;;;;;;;0.22;0.22;;;19.20;99.90;;;;;;5032637;28;20073;-64
2023/09/28 11:09:12;;;;;;;0.20;0.20;;;19.20;99.90;;;;;;5021656;28;20045;-64
2023/09/28 11:11:38;;;;;;;1.65;1.10;;;19.20;99.90;;;;;;5032245;28;20536;-64
2023/09/28 11:14:05;;;;;;;0.85;0.85;;;19.20;99.90;;;;;;5020488;28;20120;-64
2023/09/28 11:16:33;;;;;;;0.35;0.25;;;19.20;99.90;;;;;;5029130;28;20116;-64
2023/09/28 11:19:00;;;;;;;1.13;1.02;;;19.20;99.90;;;;;;5033386;28;20095;-64
2023/09/28 11:21:26;;;;;;;0.45;0.45;;;19.30;99.90;;;;;;5030591;28;20077;-63
2023/09/28 11:23:52;;;;;;;0.00;0.00;;;19.30;99.90;;;;;;5032466;28;20049;-64
2023/09/28 11:26:19;;;;;;;0.85;0.57;;;19.30;99.90;;;;;;5024169;28;20044;-64
2023/09/28 11:28:45;;;;;;;0.38;0.38;;;19.30;99.90;;;;;;5023747;28;20437;-64
2023/09/28 11:31:12;;;;;;;0.15;0.15;;;19.30;99.90;;;;;;5033175;28;20049;-64
2023/09/28 11:33:39;;;;;;;0.00;0.00;;;19.30;99.90;;;;;;5026567;28;20041;-64
2023/09/28 11:36:06;;;;;;;2.30;0.82;;;19.20;99.90;;;;;;5025572;28;20041;-64
2023/09/28 11:38:32;;;;;;;0.65;0.65;;;19.20;99.90;;;;;;5033229;28;20033;-64
2023/09/28 11:40:58;;;;;;;1.70;1.33;;;19.20;99.90;;;;;;5021889;28;20124;-64
2023/09/28 11:43:23;;;;;;;0.08;0.08;;;19.20;99.90;;;;;;5023703;28;20045;-64
2023/09/28 11:45:49;;;;;;;0.40;0.40;;;19.10;99.90;;;;;;5028856;28;20115;-64
2023/09/28 11:48:21;;;;;;;0.00;0.00;;;19.20;99.90;;;;;;5018021;28;20547;-64
2023/09/28 11:50:47;;;;;;;8.80;1.88;;;19.20;99.90;;;;;;5030641;28;20056;-64
2023/09/28 11:53:15;;;;;;;1.17;0.55;;;19.10;99.90;;;;;;5020047;28;20042;-63
2023/09/28 11:55:41;;;;;;;3.03;0.47;;;19.00;99.90;;;;;;5029753;28;20058;-64
2023/09/28 11:58:08;;;;;;;1.95;0.70;;;19.00;99.90;;;;;;5017796;28;20038;-64
2023/09/28 12:00:35;;;;;;;0.00;0.00;;;19.00;99.90;;;;;;5031210;28;20179;-64
2023/09/28 12:03:03;;;;;;;0.10;0.10;;;18.90;99.90;;;;;;5030007;28;20488;-64
2023/09/28 12:05:29;;;;;;;3.95;3.30;;;18.90;99.90;;;;;;5020061;28;20042;-64
2023/09/28 12:07:55;;;;;;;5.15;1.15;;;18.90;99.90;;;;;;5031045;28;20049;-64
2023/09/28 12:10:21;;;;;;;0.30;0.30;;;18.90;99.90;;;;;;5031804;28;20496;-64
2023/09/28 12:12:47;;;;;;;4.40;0.98;;;18.90;99.90;;;;;;5031032;28;20033;-64
2023/09/28 12:15:14;;;;;;;0.50;0.47;;;19.10;99.90;;;;;;5017557;28;20128;-64
2023/09/28 12:17:40;;;;;;;0.00;0.00;;;19.00;99.90;;;;;;5028235;28;20393;-64
2023/09/28 12:20:14;;;;;;;0.80;0.80;;;19.00;99.90;;;;;;5032475;28;20033;-64
2023/09/28 12:22:41;;;;;;;0.38;0.38;;;19.00;99.90;;;;;;5029519;28;20053;-64
2023/09/28 12:25:08;;;;;;;6.95;1.27;;;19.10;99.90;;;;;;5021432;28;20399;-64
2023/09/28 12:27:35;;;;;;;6.13;1.42;;;19.20;99.90;;;;;;5032441;28;20041;-64
2023/09/28 12:30:02;;;;;;;0.32;0.32;;;19.20;99.90;;;;;;5027684;28;20125;-64
2023/09/28 12:32:29;;;;;;;0.00;0.00;;;19.30;99.90;;;;;;5023817;28;20418;-64
2023/09/28 12:34:55;;;;;;;0.22;0.22;;;19.30;99.90;;;;;;5024479;28;20057;-64
2023/09/28 12:37:21;;;;;;;0.30;0.30;;;19.20;99.90;;;;;;5017751;28;20046;-64
2023/09/28 12:39:48;;;;;;;0.00;0.00;;;19.20;99.90;;;;;;5032331;28;20041;-64
2023/09/28 12:42:15;;;;;;;0.00;0.00;;;19.20;99.90;;;;;;5030216;28;20037;-64
2023/09/28 12:44:42;;;;;;;0.57;0.57;;;19.20;99.90;;;;;;5029550;28;20071;-64
2023/09/28 12:47:09;;;;;;;2.13;1.27;;;19.10;99.90;;;;;;5017749;28;20540;-64